Time;durP1;ratioP1;P1;durP2;ratioP2;P2;SDS_P1;SDS_P2;PMS_P1;PMS_P2;Temp;Humidity;BMP_temperature;BMP_pressure;BME280_temperature;BME280_humidity;BME280_pressure;Samples;Min_cycle;Max_cycle;Signal;HPM_P1;HPM_P2
2022/12/01 00:01:31;;;;;;;;;;;6.00;99.90;;;;;;5062442;28;20015;-75
2022/12/01 00:03:56;;;;;;;;;;;5.90;99.90;;;;;;5062840;28;19927;-75
2022/12/01 00:06:22;;;;;;;;;;;6.00;99.90;;;;;;5063471;28;19920;-74
2022/12/01 00:11:33;;;;;;;;;;;6.00;99.90;;;;;;5061007;28;19920;-74
2022/12/01 00:13:59;;;;;;;;;;;6.00;99.90;;;;;;5063318;28;20014;-74
2022/12/01 00:16:24;;;;;;;;;;;5.90;99.90;;;;;;5062531;28;19991;-74
2022/12/01 00:18:51;;;;;;;;;;;5.90;99.90;;;;;;5062816;28;19924;-75
2022/12/01 00:21:17;;;;;;;;;;;5.90;99.90;;;;;;5063051;28;19927;-75
2022/12/01 00:23:43;;;;;;;;;;;5.90;99.90;;;;;;5060972;28;20019;-75
2022/12/01 00:26:09;;;;;;;;;;;6.80;99.90;;;;;;5063178;28;20043;-75
2022/12/01 00:28:34;;;;;;;;;;;6.60;99.90;;;;;;5060321;28;19975;-75
2022/12/01 00:31:00;;;;;;;;;;;6.50;99.90;;;;;;5063717;28;19943;-75
2022/12/01 00:33:25;;;;;;;;;;;5.90;99.90;;;;;;5060319;28;19982;-75
2022/12/01 00:35:56;;;;;;;;;;;7.70;99.90;;;;;;5063062;28;19929;-75
2022/12/01 00:38:22;;;;;;;;;;;5.90;99.90;;;;;;5061854;28;20312;-75
2022/12/01 00:40:47;;;;;;;;;;;7.00;99.90;;;;;;5062498;28;20019;-75
2022/12/01 00:43:13;;;;;;;;;;;5.90;99.90;;;;;;5059783;28;19921;-75
2022/12/01 00:45:38;;;;;;;;;;;5.90;99.90;;;;;;5062119;28;19917;-76
2022/12/01 00:48:04;;;;;;;;;;;5.90;99.90;;;;;;5062487;28;19920;-75
2022/12/01 00:50:29;;;;;;;;;;;5.90;99.90;;;;;;5062085;28;20032;-76
2022/12/01 00:52:55;;;;;;;;;;;5.80;99.90;;;;;;5064297;28;19931;-76
2022/12/01 00:55:20;;;;;;;;;;;5.80;99.90;;;;;;5060699;28;19921;-75
2022/12/01 00:57:46;;;;;;;;;;;5.80;99.90;;;;;;5062222;28;19928;-76
2022/12/01 01:00:12;;;;;;;;;;;7.10;99.90;;;;;;5062169;28;20394;-75
2022/12/01 01:02:38;;;;;;;;;;;5.80;99.90;;;;;;5061415;28;19962;-76
2022/12/01 01:05:04;;;;;;;;;;;5.80;99.90;;;;;;5063639;28;19920;-75
2022/12/01 01:07:29;;;;;;;;;;;5.70;99.90;;;;;;5060139;28;20025;-76
2022/12/01 01:09:55;;;;;;;;;;;5.70;99.90;;;;;;5063181;28;20410;-76
2022/12/01 01:12:20;;;;;;;;;;;6.70;99.90;;;;;;5060873;28;20010;-76
2022/12/01 01:14:46;;;;;;;;;;;6.90;99.90;;;;;;5061694;28;19920;-76
2022/12/01 01:17:11;;;;;;;;;;;5.60;99.90;;;;;;5061704;28;19920;-76
2022/12/01 01:19:37;;;;;;;;;;;5.60;99.90;;;;;;5061628;28;19917;-76
2022/12/01 01:22:03;;;;;;;;;;;5.60;99.90;;;;;;5061158;28;20011;-76
2022/12/01 01:24:28;;;;;;;;;;;6.00;99.90;;;;;;5060420;28;20534;-76
2022/12/01 01:26:54;;;;;;;;;;;5.50;99.90;;;;;;5063379;28;19927;-76
2022/12/01 01:29:19;;;;;;;;;;;5.50;99.90;;;;;;5059922;28;19960;-76
2022/12/01 01:31:45;;;;;;;;;;;5.40;99.90;;;;;;5063435;28;19930;-75
2022/12/01 01:34:10;;;;;;;;;;;5.40;99.90;;;;;;5059052;28;20333;-76
2022/12/01 01:36:36;;;;;;;;;;;5.40;99.90;;;;;;5060006;28;19970;-76
2022/12/01 01:39:01;;;;;;;;;;;5.30;99.90;;;;;;5061118;28;19920;-75
2022/12/01 01:41:27;;;;;;;;;;;5.30;99.90;;;;;;5061716;28;20390;-76
2022/12/01 01:43:54;;;;;;;;;;;5.20;99.90;;;;;;5060199;28;19932;-76
2022/12/01 01:46:21;;;;;;;;;;;5.30;99.90;;;;;;5062590;28;20329;-76
2022/12/01 01:48:48;;;;;;;;;;;6.10;99.90;;;;;;5058507;28;19927;-76
2022/12/01 01:51:16;;;;;;;;;;;5.30;99.90;;;;;;5082808;28;19923;-76
2022/12/01 01:53:43;;;;;;;;;;;5.30;99.90;;;;;;5064770;28;19939;-76
2022/12/01 01:56:09;;;;;;;;;;;6.20;99.90;;;;;;5067418;28;19921;-76
2022/12/01 01:58:35;;;;;;;;;;;5.20;99.90;;;;;;5062903;28;19924;-75
2022/12/01 02:01:01;;;;;;;;;;;5.20;99.90;;;;;;5066545;28;19975;-76
2022/12/01 02:03:30;;;;;;;;;;;5.20;99.90;;;;;;5064749;28;19964;-75
2022/12/01 02:05:56;;;;;;;;;;;5.10;99.90;;;;;;5065104;28;19921;-76
2022/12/01 02:08:22;;;;;;;;;;;5.20;99.90;;;;;;5066938;28;19962;-76
2022/12/01 02:11:06;;;;;;;;;;;5.20;99.90;;;;;;5064261;28;20218;-76
2022/12/01 02:13:37;;;;;;;;;;;5.20;99.90;;;;;;5064850;28;19921;-76
2022/12/01 02:16:27;;;;;;;;;;;5.40;99.90;;;;;;5063544;28;19920;-76
2022/12/01 02:19:04;;;;;;;;;;;5.20;99.90;;;;;;5064062;28;20011;-76
2022/12/01 02:21:32;;;;;;;;;;;5.20;99.90;;;;;;5065865;28;19921;-76
2022/12/01 02:24:07;;;;;;;;;;;5.30;99.90;;;;;;5063945;28;20011;-76
2022/12/01 02:26:41;;;;;;;;;;;5.30;99.90;;;;;;5065261;28;19963;-76
2022/12/01 02:29:09;;;;;;;;;;;5.30;99.90;;;;;;5063056;28;20291;-76
2022/12/01 02:31:41;;;;;;;;;;;5.30;99.90;;;;;;5061868;28;19921;-76
2022/12/01 02:34:27;;;;;;;;;;;7.50;99.90;;;;;;5062486;28;19927;-76
2022/12/01 02:37:19;;;;;;;;;;;5.30;99.90;;;;;;5064796;28;19925;-76
2022/12/01 02:39:50;;;;;;;;;;;5.30;99.90;;;;;;5049908;28;19969;-76
2022/12/01 02:42:48;;;;;;;;;;;5.30;99.90;;;;;;5063277;28;19924;-76
2022/12/01 02:45:09;;;;;;;;;;;5.30;99.90;;;;;;5062801;28;19924;-76
2022/12/01 02:47:36;;;;;;;;;;;5.40;99.90;;;;;;5060831;28;19921;-76
2022/12/01 02:50:02;;;;;;;;;;;5.40;99.90;;;;;;5065500;28;20383;-76
2022/12/01 02:52:28;;;;;;;;;;;5.40;99.90;;;;;;5063594;28;19935;-76
2022/12/01 02:54:55;;;;;;;;;;;5.40;99.90;;;;;;5065120;28;19974;-76
2022/12/01 02:57:20;;;;;;;;;;;5.40;99.90;;;;;;5063430;28;19926;-76
2022/12/01 02:59:48;;;;;;;;;;;7.60;99.90;;;;;;5064139;28;20015;-76
2022/12/01 03:02:16;;;;;;;;;;;5.40;99.90;;;;;;5063987;28;19958;-76
2022/12/01 03:05:05;;;;;;;;;;;5.40;99.90;;;;;;5063792;28;19947;-76
2022/12/01 03:07:39;;;;;;;;;;;5.40;99.90;;;;;;5063262;28;19983;-76
2022/12/01 03:10:12;;;;;;;;;;;5.40;99.90;;;;;;5062945;28;20390;-76
2022/12/01 03:12:56;;;;;;;;;;;5.40;99.90;;;;;;5064975;28;20851;-76
2022/12/01 03:15:47;;;;;;;;;;;5.40;99.90;;;;;;5063513;28;19974;-76
2022/12/01 03:18:34;;;;;;;;;;;5.40;99.90;;;;;;5062708;28;19921;-76
2022/12/01 03:21:22;;;;;;;;;;;5.40;99.90;;;;;;5062055;28;19924;-76
2022/12/01 03:23:51;;;;;;;;;;;5.40;99.90;;;;;;5064493;28;20303;-76
2022/12/01 03:26:21;;;;;;;;;;;5.40;99.90;;;;;;5061828;28;20012;-76
2022/12/01 03:28:52;;;;;;;;;;;5.40;99.90;;;;;;5062014;28;19991;-76
2022/12/01 03:31:21;;;;;;;;;;;5.40;99.90;;;;;;5064592;28;19925;-76
2022/12/01 03:33:54;;;;;;;;;;;5.40;99.90;;;;;;5062092;28;19921;-76
2022/12/01 03:36:21;;;;;;;;;;;5.40;99.90;;;;;;5064338;28;19924;-76
2022/12/01 03:38:53;;;;;;;;;;;6.00;99.90;;;;;;5062328;28;19920;-76
2022/12/01 03:41:21;;;;;;;;;;;5.40;99.90;;;;;;5064852;28;19921;-76
2022/12/01 03:43:50;;;;;;;;;;;5.40;99.90;;;;;;5062518;28;19928;-76
2022/12/01 03:46:21;;;;;;;;;;;5.40;99.90;;;;;;5063675;28;19928;-76
2022/12/01 03:48:47;;;;;;;;;;;5.40;99.90;;;;;;5062901;28;19946;-76
2022/12/01 03:51:24;;;;;;;;;;;5.40;99.90;;;;;;5062873;28;19943;-76
2022/12/01 03:54:07;;;;;;;;;;;5.40;99.90;;;;;;5063968;28;20280;-76
2022/12/01 03:56:36;;;;;;;;;;;5.40;99.90;;;;;;5061864;28;20290;-76
2022/12/01 03:59:03;;;;;;;;;;;7.60;99.90;;;;;;5063431;28;19959;-75
2022/12/01 04:01:31;;;;;;;;;;;5.40;99.90;;;;;;5060175;28;19921;-75
2022/12/01 04:04:04;;;;;;;;;;;5.40;99.90;;;;;;5063880;28;19928;-76
2022/12/01 04:06:30;;;;;;;;;;;5.40;99.90;;;;;;5062017;28;19927;-75
2022/12/01 04:08:56;;;;;;;;;;;5.40;99.90;;;;;;5065157;28;19963;-76
2022/12/01 04:14:08;;;;;;;;;;;5.40;99.90;;;;;;5063471;28;20019;-76
2022/12/01 04:16:34;;;;;;;;;;;7.10;99.90;;;;;;5061479;28;19927;-76
2022/12/01 04:18:59;;;;;;;;;;;5.40;99.90;;;;;;5061749;28;20303;-76
2022/12/01 04:21:25;;;;;;;;;;;5.40;99.90;;;;;;5064461;28;19920;-76
2022/12/01 04:24:00;;;;;;;;;;;5.40;99.90;;;;;;5060339;28;19920;-76
2022/12/01 04:26:26;;;;;;;;;;;7.10;99.90;;;;;;5062327;28;19924;-76
2022/12/01 04:28:51;;;;;;;;;;;5.30;99.90;;;;;;5060314;28;20346;-77
2022/12/01 04:31:17;;;;;;;;;;;5.30;99.90;;;;;;5059394;28;19917;-76
2022/12/01 04:33:42;;;;;;;;;;;5.60;99.90;;;;;;5063803;28;19935;-77
2022/12/01 04:36:08;;;;;;;;;;;5.30;99.90;;;;;;5061338;28;19920;-76
2022/12/01 04:38:35;;;;;;;;;;;5.40;99.90;;;;;;5062100;28;20043;-76
2022/12/01 04:41:06;;;;;;;;;;;5.40;99.90;;;;;;5061703;28;20359;-76
2022/12/01 04:43:32;;;;;;;;;;;6.30;99.90;;;;;;5062717;28;19916;-76
2022/12/01 04:45:57;;;;;;;;;;;5.40;99.90;;;;;;5065058;28;19921;-76
2022/12/01 04:48:23;;;;;;;;;;;6.20;99.90;;;;;;5063877;28;20375;-77
2022/12/01 04:50:48;;;;;;;;;;;5.40;99.90;;;;;;5062257;28;19920;-75
2022/12/01 04:53:14;;;;;;;;;;;5.40;99.90;;;;;;5061230;28;19920;-76
2022/12/01 04:55:39;;;;;;;;;;;5.40;99.90;;;;;;5063712;28;19920;-76
2022/12/01 04:58:05;;;;;;;;;;;5.40;99.90;;;;;;5061856;28;19931;-76
2022/12/01 05:00:31;;;;;;;;;;;5.50;99.90;;;;;;5060900;28;19951;-76
2022/12/01 05:02:57;;;;;;;;;;;6.30;99.90;;;;;;5062986;28;19921;-75
2022/12/01 05:05:23;;;;;;;;;;;5.40;99.90;;;;;;5062455;28;19956;-73
2022/12/01 05:07:48;;;;;;;;;;;5.50;99.90;;;;;;5058786;28;19967;-74
2022/12/01 05:10:14;;;;;;;;;;;5.50;99.90;;;;;;5062303;28;19927;-73
2022/12/01 05:12:43;;;;;;;;;;;5.50;99.90;;;;;;5060724;28;20287;-72
2022/12/01 05:15:08;;;;;;;;;;;5.40;99.90;;;;;;5063219;28;20007;-75
2022/12/01 05:17:34;;;;;;;;;;;5.50;99.90;;;;;;5059663;28;19970;-77
2022/12/01 05:22:43;;;;;;;;;;;5.40;99.90;;;;;;5059252;28;19921;-74
2022/12/01 05:25:09;;;;;;;;;;;6.00;99.90;;;;;;5062676;28;19925;-77
2022/12/01 05:27:34;;;;;;;;;;;5.50;99.90;;;;;;5058879;28;19920;-76
2022/12/01 05:30:00;;;;;;;;;;;5.50;99.90;;;;;;5062801;28;19928;-71
2022/12/01 05:32:25;;;;;;;;;;;5.50;99.90;;;;;;5060427;28;19932;-75
2022/12/01 05:34:51;;;;;;;;;;;5.40;99.90;;;;;;5060500;28;19921;-72
2022/12/01 05:37:17;;;;;;;;;;;5.40;99.90;;;;;;5062846;28;19920;-85
2022/12/01 05:39:42;;;;;;;;;;;5.40;99.90;;;;;;5060326;28;19921;-72
2022/12/01 05:42:08;;;;;;;;;;;5.40;99.90;;;;;;5063145;28;20053;-76
2022/12/01 05:44:33;;;;;;;;;;;6.10;99.90;;;;;;5059069;28;19921;-79
2022/12/01 05:46:58;;;;;;;;;;;5.40;99.90;;;;;;5057613;28;19928;-78
2022/12/01 05:49:24;;;;;;;;;;;5.40;99.90;;;;;;5056542;28;20367;-83
2022/12/01 05:51:49;;;;;;;;;;;5.30;99.90;;;;;;5056175;28;19921;-78
2022/12/01 05:54:15;;;;;;;;;;;5.40;99.90;;;;;;5052005;28;20011;-79
2022/12/01 05:56:40;;;;;;;;;;;7.10;99.90;;;;;;5049990;28;19928;-80
2022/12/01 05:59:09;;;;;;;;;;;5.30;99.90;;;;;;5051680;28;19924;-77
2022/12/01 06:01:34;;;;;;;;;;;6.60;99.90;;;;;;5051902;28;20390;-75
2022/12/01 06:04:00;;;;;;;;;;;5.10;99.90;;;;;;5057523;28;19921;-77
2022/12/01 06:06:25;;;;;;;;;;;5.00;99.90;;;;;;5050696;28;19936;-80
2022/12/01 06:08:51;;;;;;;;;;;4.70;99.90;;;;;;5050151;28;19986;-75
2022/12/01 06:11:16;;;;;;;;;;;4.90;99.90;;;;;;5050137;28;20342;-77
2022/12/01 06:13:42;;;;;;;;;;;5.80;99.90;;;;;;5050765;28;19921;-78
2022/12/01 06:16:07;;;;;;;;;;;4.70;99.90;;;;;;5051688;28;19932;-77
2022/12/01 06:18:34;;;;;;;;;;;4.60;99.90;;;;;;5054773;28;19960;-77
2022/12/01 06:21:00;;;;;;;;;;;4.50;99.90;;;;;;5059977;28;19920;-75
2022/12/01 06:23:26;;;;;;;;;;;4.40;99.90;;;;;;5063304;28;20007;-80
2022/12/01 06:25:52;;;;;;;;;;;4.30;99.90;;;;;;5059212;28;20055;-76
2022/12/01 06:28:17;;;;;;;;;;;4.20;99.90;;;;;;5060815;28;19920;-75
2022/12/01 06:30:43;;;;;;;;;;;4.20;99.90;;;;;;5061154;28;19927;-77
2022/12/01 06:33:08;;;;;;;;;;;5.50;99.90;;;;;;5057307;28;20406;-76
2022/12/01 06:35:34;;;;;;;;;;;4.00;99.90;;;;;;5061283;28;19920;-76
2022/12/01 06:38:00;;;;;;;;;;;4.00;99.90;;;;;;5058981;28;19920;-76
2022/12/01 06:40:26;;;;;;;;;;;3.90;99.90;;;;;;5065997;28;19931;-76
2022/12/01 06:42:51;;;;;;;;;;;3.90;99.90;;;;;;5059581;28;20334;-76
2022/12/01 06:45:17;;;;;;;;;;;3.90;99.90;;;;;;5062974;28;20349;-76
2022/12/01 06:47:43;;;;;;;;;;;3.80;99.90;;;;;;5062740;28;19921;-76
2022/12/01 06:50:10;;;;;;;;;;;3.70;99.90;;;;;;5061833;28;19920;-76
2022/12/01 06:52:36;;;;;;;;;;;3.70;99.90;;;;;;5061756;28;19920;-75
2022/12/01 06:55:05;;;;;;;;;;;3.60;99.90;;;;;;5063857;28;19926;-75
2022/12/01 06:57:31;;;;;;;;;;;3.40;99.90;;;;;;5063465;28;19921;-76
2022/12/01 06:59:56;;;;;;;;;;;4.50;99.90;;;;;;5066122;28;19970;-76
2022/12/01 07:02:22;;;;;;;;;;;3.40;99.90;;;;;;5066839;28;20276;-76
2022/12/01 07:04:47;;;;;;;;;;;3.40;99.90;;;;;;5062122;28;20401;-76
2022/12/01 07:07:13;;;;;;;;;;;3.40;99.90;;;;;;5064385;28;19927;-76
2022/12/01 07:09:38;;;;;;;;;;;3.30;99.90;;;;;;5063163;28;19926;-76
2022/12/01 07:12:04;;;;;;;;;;;3.30;99.90;;;;;;5064449;28;19928;-76
2022/12/01 07:14:30;;;;;;;;;;;3.20;99.90;;;;;;5063189;28;19927;-76
2022/12/01 07:16:56;;;;;;;;;;;3.20;99.90;;;;;;5059449;28;20308;-77
2022/12/01 07:19:22;;;;;;;;;;;4.50;99.90;;;;;;5094452;28;19917;-76
2022/12/01 07:21:47;;;;;;;;;;;3.20;99.90;;;;;;5056986;28;20292;-77
2022/12/01 07:24:13;;;;;;;;;;;3.20;99.90;;;;;;5060342;28;20364;-73
2022/12/01 07:26:39;;;;;;;;;;;5.60;99.90;;;;;;5057830;28;20374;-75
2022/12/01 07:29:05;;;;;;;;;;;3.30;99.90;;;;;;5053993;28;19921;-79
2022/12/01 07:31:31;;;;;;;;;;;3.40;99.90;;;;;;5054107;28;19927;-76
2022/12/01 07:33:59;;;;;;;;;;;3.40;99.90;;;;;;5054418;28;19932;-73
2022/12/01 07:36:25;;;;;;;;;;;3.40;99.90;;;;;;5057096;28;20292;-76
2022/12/01 07:38:50;;;;;;;;;;;3.50;99.90;;;;;;5052531;28;19956;-77
2022/12/01 07:41:19;;;;;;;;;;;3.60;99.90;;;;;;5057685;28;19976;-76
2022/12/01 07:43:45;;;;;;;;;;;3.60;99.90;;;;;;5053913;28;20295;-77
2022/12/01 07:46:12;;;;;;;;;;;5.40;99.90;;;;;;5053854;28;19924;-76
2022/12/01 07:48:38;;;;;;;;;;;3.70;99.90;;;;;;5064222;28;19928;-76
2022/12/01 07:51:04;;;;;;;;;;;5.90;99.90;;;;;;5056600;28;19932;-72
2022/12/01 07:53:30;;;;;;;;;;;3.90;99.90;;;;;;5055077;28;19921;-72
2022/12/01 07:55:56;;;;;;;;;;;3.90;99.90;;;;;;5054253;28;19925;-72
2022/12/01 07:58:21;;;;;;;;;;;4.00;99.90;;;;;;5054092;28;20003;-72
2022/12/01 08:00:47;;;;;;;;;;;4.00;99.90;;;;;;5053327;28;19924;-75
2022/12/01 08:03:12;;;;;;;;;;;4.00;99.90;;;;;;5056842;28;19938;-75
2022/12/01 08:05:38;;;;;;;;;;;5.50;99.90;;;;;;5059330;28;19927;-74
2022/12/01 08:08:04;;;;;;;;;;;4.20;99.90;;;;;;5052863;28;20023;-76
2022/12/01 08:10:29;;;;;;;;;;;4.30;99.90;;;;;;5052803;28;20024;-71
2022/12/01 08:12:55;;;;;;;;;;;4.40;99.90;;;;;;5061369;28;19917;-74
2022/12/01 08:15:20;;;;;;;;;;;4.50;99.90;;;;;;5053872;28;19974;-72
2022/12/01 08:17:46;;;;;;;;;;;4.60;99.90;;;;;;5051906;28;19998;-74
2022/12/01 08:20:11;;;;;;;;;;;6.60;99.90;;;;;;5057172;28;19920;-75
2022/12/01 08:22:37;;;;;;;;;;;4.80;99.90;;;;;;5055105;28;19943;-77
2022/12/01 08:25:03;;;;;;;;;;;6.60;99.90;;;;;;5061789;28;19931;-77
2022/12/01 08:27:28;;;;;;;;;;;5.90;99.90;;;;;;5060263;28;19920;-80
2022/12/01 08:29:54;;;;;;;;;;;7.80;99.90;;;;;;5063014;28;20279;-80
2022/12/01 08:32:19;;;;;;;;;;;8.50;99.90;;;;;;5061842;28;20370;-80
2022/12/01 08:34:45;;;;;;;;;;;8.00;99.90;;;;;;5062955;28;20021;-80
2022/12/01 08:37:16;;;;;;;;;;;8.60;99.90;;;;;;5059552;28;19927;-80
2022/12/01 08:39:41;;;;;;;;;;;9.20;99.90;;;;;;5061753;28;19920;-80
2022/12/01 08:42:07;;;;;;;;;;;9.80;99.90;;;;;;5059445;28;20326;-80
2022/12/01 08:44:32;;;;;;;;;;;10.30;99.90;;;;;;5061390;28;20033;-80
2022/12/01 08:46:58;;;;;;;;;;;10.90;99.90;;;;;;5057873;28;20460;-80
2022/12/01 08:49:23;;;;;;;;;;;11.40;99.90;;;;;;5061711;28;19967;-80
2022/12/01 08:51:49;;;;;;;;;;;11.90;99.90;;;;;;5061077;28;19920;-80
2022/12/01 08:54:14;;;;;;;;;;;12.80;99.90;;;;;;5063845;28;19928;-80
2022/12/01 08:56:41;;;;;;;;;;;13.00;99.90;;;;;;5060899;28;19924;-81
2022/12/01 08:59:07;;;;;;;;;;;13.40;99.90;;;;;;5063988;28;19963;-80
2022/12/01 09:01:33;;;;;;;;;;;14.80;99.90;;;;;;5059690;28;19975;-80
2022/12/01 09:04:07;;;;;;;;;;;14.00;99.90;;;;;;5059951;28;20390;-80
2022/12/01 09:06:42;;;;;;;;;;;14.10;99.90;;;;;;5059756;28;19925;-80
2022/12/01 09:09:09;;;;;;;;;;;14.30;99.90;;;;;;5061818;28;19924;-80
2022/12/01 09:11:35;;;;;;;;;;;14.80;99.90;;;;;;5062518;28;19954;-77
2022/12/01 09:14:00;;;;;;;;;;;15.30;99.90;;;;;;5064283;28;19955;-78
2022/12/01 09:16:26;;;;;;;;;;;15.60;99.90;;;;;;5059673;28;19927;-77
2022/12/01 09:18:51;;;;;;;;;;;16.30;99.90;;;;;;5061881;28;19920;-79
2022/12/01 09:21:19;;;;;;;;;;;16.50;99.90;;;;;;5059131;28;19929;-78
2022/12/01 09:23:45;;;;;;;;;;;16.80;99.00;;;;;;5062297;28;20382;-78
2022/12/01 09:26:11;;;;;;;;;;;17.10;96.90;;;;;;5061843;28;19921;-79
2022/12/01 09:28:37;;;;;;;;;;;17.30;97.40;;;;;;5062557;28;20287;-78
2022/12/01 09:31:06;;;;;;;;;;;17.40;95.90;;;;;;5059354;28;19921;-78
2022/12/01 09:33:32;;;;;;;;;;;17.60;96.20;;;;;;5063480;28;20003;-78
2022/12/01 09:35:58;;;;;;;;;;;17.90;96.60;;;;;;5060104;28;20041;-78
2022/12/01 09:38:24;;;;;;;;;;;18.50;96.70;;;;;;5063576;28;19921;-78
2022/12/01 09:40:50;;;;;;;;;;;18.90;95.60;;;;;;5060363;28;19935;-78
2022/12/01 09:43:17;;;;;;;;;;;19.20;93.80;;;;;;5062844;28;20019;-78
2022/12/01 09:45:46;;;;;;;;;;;19.30;93.60;;;;;;5060564;28;19927;-78
2022/12/01 09:48:18;;;;;;;;;;;19.30;93.20;;;;;;5061218;28;20382;-78
2022/12/01 09:50:44;;;;;;;;;;;19.10;91.50;;;;;;5060295;28;20011;-78
2022/12/01 09:53:14;;;;;;;;;;;19.00;92.30;;;;;;5060589;28;20360;-78
2022/12/01 09:55:40;;;;;;;;;;;19.40;92.70;;;;;;5059669;28;19921;-78
2022/12/01 09:58:12;;;;;;;;;;;19.40;91.50;;;;;;5061296;28;19994;-78
2022/12/01 10:00:41;;;;;;;;;;;19.10;91.00;;;;;;5061734;28;19935;-78
2022/12/01 10:03:15;;;;;;;;;;;19.10;92.20;;;;;;5061907;28;19932;-78
2022/12/01 10:05:46;;;;;;;;;;;18.60;91.70;;;;;;5061943;28;19927;-78
2022/12/01 10:08:14;;;;;;;;;;;18.00;92.00;;;;;;5061396;28;19941;-78
2022/12/01 10:10:43;;;;;;;;;;;17.80;92.60;;;;;;5059331;28;19963;-78
2022/12/01 10:13:16;;;;;;;;;;;18.30;92.00;;;;;;5061329;28;19920;-78
2022/12/01 10:15:48;;;;;;;;;;;17.60;93.90;;;;;;5065644;28;19983;-79
2022/12/01 10:18:13;;;;;;;;;;;17.20;94.00;;;;;;5065975;28;19929;-78
2022/12/01 10:20:39;;;;;;;;;;;17.70;93.80;;;;;;5065577;28;20332;-79
2022/12/01 10:23:31;;;;;;;;;;;17.90;93.20;;;;;;5065082;28;19927;-78
2022/12/01 10:25:58;;;;;;;;;;;18.10;93.40;;;;;;5063678;28;20422;-78
2022/12/01 10:28:30;;;;;;;;;;;18.60;91.90;;;;;;5066888;28;19920;-78
2022/12/01 10:31:05;;;;;;;;;;;19.00;92.00;;;;;;5062213;28;20371;-78
2022/12/01 10:33:44;;;;;;;;;;;19.60;91.40;;;;;;5065802;28;19924;-78
2022/12/01 10:36:09;;;;;;;;;;;19.70;91.30;;;;;;5064407;28;19983;-78
2022/12/01 10:38:36;;;;;;;;;;;19.90;90.90;;;;;;5063945;28;20020;-78
2022/12/01 10:41:02;;;;;;;;;;;20.00;91.10;;;;;;5064597;28;19966;-78
2022/12/01 10:43:48;;;;;;;;;;;20.40;91.00;;;;;;5064325;28;20326;-78
2022/12/01 10:46:24;;;;;;;;;;;20.60;90.40;;;;;;5066159;28;19924;-79
2022/12/01 10:48:57;;;;;;;;;;;21.00;89.70;;;;;;5063420;28;19920;-79
2022/12/01 10:51:22;;;;;;;;;;;20.80;88.90;;;;;;5065536;28;19924;-78
2022/12/01 10:53:48;;;;;;;;;;;21.10;88.90;;;;;;5062927;28;20321;-78
2022/12/01 10:56:17;;;;;;;;;;;21.40;87.40;;;;;;5065345;28;19920;-79
2022/12/01 10:58:47;;;;;;;;;;;21.30;85.20;;;;;;5061993;28;20026;-79
2022/12/01 11:01:21;;;;;;;;;;;21.40;85.20;;;;;;5063074;28;19921;-78
2022/12/01 11:04:00;;;;;;;;;;;21.10;87.00;;;;;;5061906;28;19921;-78
2022/12/01 11:06:27;;;;;;;;;;;21.00;86.70;;;;;;5059427;28;20330;-79
2022/12/01 11:08:55;;;;;;;;;;;21.30;86.90;;;;;;5066412;28;20288;-78
2022/12/01 11:11:24;;;;;;;;;;;21.10;84.30;;;;;;5064588;28;19963;-78
2022/12/01 11:13:49;;;;;;;;;;;21.50;87.20;;;;;;5064302;28;19920;-78
2022/12/01 11:16:33;;;;;;;;;;;21.80;83.10;;;;;;5062939;28;19943;-78
2022/12/01 11:19:06;;;;;;;;;;;21.90;86.90;;;;;;5064227;28;19916;-78
2022/12/01 11:21:31;;;;;;;;;;;22.00;84.40;;;;;;5063046;28;19927;-78
2022/12/01 11:23:57;;;;;;;;;;;21.80;84.00;;;;;;5063850;28;19916;-78
2022/12/01 11:26:33;;;;;;;;;;;21.40;84.80;;;;;;5061857;28;19921;-78
2022/12/01 11:28:58;;;;;;;;;;;21.20;85.40;;;;;;5064829;28;19967;-78
2022/12/01 11:31:38;;;;;;;;;;;20.60;84.00;;;;;;5063094;28;19924;-78
2022/12/01 11:34:03;;;;;;;;;;;19.40;86.70;;;;;;5063931;28;19920;-78
2022/12/01 11:36:42;;;;;;;;;;;17.80;89.90;;;;;;5062044;28;19927;-78
2022/12/01 11:39:26;;;;;;;;;;;16.40;91.70;;;;;;5065295;28;19927;-78
2022/12/01 11:41:59;;;;;;;;;;;15.20;92.40;;;;;;5062398;28;19966;-78
2022/12/01 11:44:25;;;;;;;;;;;14.30;94.40;;;;;;5064367;28;20322;-78
2022/12/01 11:46:50;;;;;;;;;;;13.40;95.90;;;;;;5063681;28;19943;-78
2022/12/01 11:49:20;;;;;;;;;;;12.70;96.60;;;;;;5061080;28;20364;-78
2022/12/01 11:51:46;;;;;;;;;;;12.30;97.80;;;;;;5065094;28;19924;-78
2022/12/01 11:54:16;;;;;;;;;;;11.40;99.00;;;;;;5062191;28;19928;-78
2022/12/01 11:56:43;;;;;;;;;;;11.10;99.40;;;;;;5062368;28;19928;-78
2022/12/01 11:59:13;;;;;;;;;;;10.70;99.90;;;;;;5062216;28;20368;-77
2022/12/01 12:01:39;;;;;;;;;;;10.40;99.90;;;;;;5063344;28;20368;-78
2022/12/01 12:04:23;;;;;;;;;;;11.70;99.90;;;;;;5060613;28;19927;-78
2022/12/01 12:07:09;;;;;;;;;;;12.20;99.90;;;;;;5062102;28;19976;-78
2022/12/01 12:09:44;;;;;;;;;;;14.10;99.90;;;;;;5075649;28;19920;-78
2022/12/01 12:12:15;;;;;;;;;;;15.70;98.90;;;;;;5064115;28;19919;-78
2022/12/01 12:14:51;;;;;;;;;;;17.00;95.20;;;;;;5062324;28;19928;-78
2022/12/01 12:17:25;;;;;;;;;;;18.10;93.60;;;;;;5061462;28;20005;-78
2022/12/01 12:19:57;;;;;;;;;;;18.40;93.00;;;;;;5063643;28;19927;-78
2022/12/01 12:22:22;;;;;;;;;;;18.70;92.40;;;;;;5062924;28;20367;-78
2022/12/01 12:24:48;;;;;;;;;;;18.90;90.60;;;;;;5060875;28;20011;-78
2022/12/01 12:27:22;;;;;;;;;;;18.30;91.60;;;;;;5063065;28;19921;-78
2022/12/01 12:30:02;;;;;;;;;;;17.40;92.90;;;;;;5060470;28;20333;-78
2022/12/01 12:32:30;;;;;;;;;;;16.50;92.40;;;;;;5060762;28;19927;-78
2022/12/01 12:35:02;;;;;;;;;;;15.60;94.70;;;;;;5061298;28;20405;-78
2022/12/01 12:37:39;;;;;;;;;;;15.30;95.80;;;;;;5060157;28;19924;-79
2022/12/01 12:40:24;;;;;;;;;;;14.10;96.30;;;;;;5060308;28;19921;-78
2022/12/01 12:43:12;;;;;;;;;;;13.40;98.00;;;;;;5061568;28;19926;-78
2022/12/01 12:46:04;;;;;;;;;;;12.80;98.90;;;;;;5061459;28;19936;-78
2022/12/01 12:48:36;;;;;;;;;;;12.30;99.90;;;;;;5059617;28;19920;-78
2022/12/01 12:51:07;;;;;;;;;;;11.90;99.90;;;;;;5060470;28;19925;-78
2022/12/01 12:53:37;;;;;;;;;;;11.60;99.90;;;;;;5063182;28;19916;-77
2022/12/01 12:56:04;;;;;;;;;;;11.30;99.90;;;;;;5059999;28;19928;-78
2022/12/01 12:58:48;;;;;;;;;;;11.00;99.90;;;;;;5061724;28;19966;-77
2022/12/01 13:01:21;;;;;;;;;;;10.80;99.90;;;;;;5062954;28;20390;-77
2022/12/01 13:03:56;;;;;;;;;;;10.60;99.90;;;;;;5060756;28;19928;-77
2022/12/01 13:06:31;;;;;;;;;;;10.50;99.90;;;;;;5059205;28;20327;-77
2022/12/01 13:09:02;;;;;;;;;;;10.30;99.90;;;;;;5061967;28;19928;-77
2022/12/01 13:11:33;;;;;;;;;;;10.20;99.90;;;;;;5060898;28;19920;-77
2022/12/01 13:14:17;;;;;;;;;;;10.10;99.90;;;;;;5094648;28;20308;-77
2022/12/01 13:16:45;;;;;;;;;;;10.00;99.90;;;;;;5060651;28;20390;-79
2022/12/01 13:19:13;;;;;;;;;;;10.50;99.90;;;;;;5061307;28;19920;-78
2022/12/01 13:21:44;;;;;;;;;;;9.80;99.90;;;;;;5061410;28;19920;-79
2022/12/01 13:24:11;;;;;;;;;;;9.80;99.90;;;;;;5062811;28;19925;-78
2022/12/01 13:26:38;;;;;;;;;;;9.60;99.90;;;;;;5059277;28;19925;-79
2022/12/01 13:29:05;;;;;;;;;;;9.50;99.90;;;;;;5059142;28;20332;-76
2022/12/01 13:31:40;;;;;;;;;;;9.40;99.90;;;;;;5060847;28;19920;-76
2022/12/01 13:34:05;;;;;;;;;;;9.90;99.90;;;;;;5059800;28;20400;-77
2022/12/01 13:36:32;;;;;;;;;;;9.50;99.90;;;;;;5060995;28;19964;-76
2022/12/01 13:39:06;;;;;;;;;;;9.10;99.90;;;;;;5062818;28;19967;-75
2022/12/01 13:41:32;;;;;;;;;;;9.00;99.90;;;;;;5059304;28;19939;-75
2022/12/01 13:44:18;;;;;;;;;;;8.90;99.90;;;;;;5061753;28;19921;-76
2022/12/01 13:46:43;;;;;;;;;;;9.10;99.90;;;;;;5059362;28;20257;-72
2022/12/01 13:49:28;;;;;;;;;;;8.80;99.90;;;;;;5064852;28;19924;-73
2022/12/01 13:52:12;;;;;;;;;;;8.70;99.90;;;;;;5063388;28;19944;-73
2022/12/01 13:54:37;;;;;;;;;;;8.60;99.90;;;;;;5064215;28;19974;-72
2022/12/01 13:57:09;;;;;;;;;;;8.90;99.90;;;;;;5063097;28;20322;-72
2022/12/01 13:59:38;;;;;;;;;;;8.60;99.90;;;;;;5062661;28;19921;-73
2022/12/01 14:02:16;;;;;;;;;;;8.40;99.90;;;;;;5060366;28;20007;-72
2022/12/01 14:04:44;;;;;;;;;;;8.40;99.90;;;;;;5059014;28;19921;-73
2022/12/01 14:07:25;;;;;;;;;;;8.40;99.90;;;;;;5066498;28;20260;-73
2022/12/01 14:09:52;;;;;;;;;;;8.30;99.90;;;;;;5065026;28;20011;-71
2022/12/01 14:12:20;;;;;;;;;;;8.30;99.90;;;;;;5067923;28;19920;-72
2022/12/01 14:15:18;;;;;;;;;;;8.20;99.90;;;;;;5063375;28;19920;-69
2022/12/01 14:17:44;;;;;;;;;;;8.10;99.90;;;;;;5033531;28;19920;-69
2022/12/01 14:20:12;;;;;;;;;;;8.10;99.90;;;;;;5064169;28;20382;-70
2022/12/01 14:22:45;;;;;;;;;;;8.00;99.90;;;;;;5060481;28;19925;-67
2022/12/01 14:25:23;;;;;;;;;;;8.00;99.90;;;;;;5065338;28;19920;-67
2022/12/01 14:27:50;;;;;;;;;;;7.90;99.90;;;;;;5063485;28;20452;-67
2022/12/01 14:30:35;;;;;;;;;;;7.90;99.90;;;;;;5063358;28;19920;-70
2022/12/01 14:33:19;;;;;;;;;;;7.90;99.90;;;;;;5062590;28;19950;-70
2022/12/01 14:35:44;;;;;;;;;;;7.90;99.90;;;;;;5066469;28;19925;-71
2022/12/01 14:38:10;;;;;;;;;;;7.80;99.90;;;;;;5059777;28;19927;-69
2022/12/01 14:40:36;;;;;;;;;;;7.80;99.90;;;;;;5063117;28;19958;-71
2022/12/01 14:45:57;;;;;;;;;;;7.80;99.90;;;;;;5064841;28;19920;-70
2022/12/01 14:48:31;;;;;;;;;;;7.70;99.90;;;;;;5061069;28;20288;-71